createdAt,value
2023-02-16T00:01:01.398Z,183.45
2023-02-16T00:03:33.489Z,178.00
2023-02-16T00:06:05.637Z,167.00
2023-02-16T00:08:37.952Z,163.55
2023-02-16T00:11:35.678Z,178.18
2023-02-16T00:14:10.280Z,169.50
2023-02-16T00:16:42.961Z,143.82
2023-02-16T00:19:25.388Z,156.30
2023-02-16T00:21:59.641Z,160.60
2023-02-16T00:24:32.330Z,135.32
2023-02-16T00:27:13.397Z,154.45
2023-02-16T00:29:45.996Z,165.55
2023-02-16T00:32:18.172Z,170.93
2023-02-16T00:34:50.173Z,161.68
2023-02-16T00:37:22.201Z,154.77
2023-02-16T00:39:54.184Z,174.88
2023-02-16T00:42:32.603Z,184.32
2023-02-16T00:45:05.472Z,155.63
2023-02-16T00:47:43.234Z,181.90
2023-02-16T00:50:30.313Z,173.63
2023-02-16T00:53:05.294Z,169.48
2023-02-16T00:55:39.545Z,138.05
2023-02-16T00:58:31.260Z,154.13
2023-02-16T01:01:14.894Z,176.18
2023-02-16T01:03:47.131Z,166.30
2023-02-16T01:06:37.512Z,160.80
2023-02-16T01:09:37.412Z,139.98
2023-02-16T01:12:17.473Z,176.33
2023-02-16T01:14:53.769Z,159.38
2023-02-16T01:17:25.755Z,175.90
2023-02-16T01:19:57.719Z,157.93
2023-02-16T01:22:33.682Z,171.23
2023-02-16T01:25:06.155Z,174.77
2023-02-16T01:27:39.522Z,148.52
2023-02-16T01:30:15.750Z,137.85
2023-02-16T01:32:51.936Z,140.18
2023-02-16T01:35:34.687Z,147.98
2023-02-16T01:38:07.125Z,159.73
2023-02-16T01:40:43.638Z,165.23
2023-02-16T01:43:36.038Z,158.55
2023-02-16T01:46:37.332Z,160.25
2023-02-16T01:49:18.890Z,172.95
2023-02-16T01:52:15.697Z,146.52
2023-02-16T01:55:00.666Z,133.60
2023-02-16T01:57:39.459Z,160.93
2023-02-16T02:00:24.422Z,177.55
2023-02-16T02:03:35.471Z,178.48
2023-02-16T02:06:18.666Z,157.88
2023-02-16T02:09:02.462Z,172.60
2023-02-16T02:11:42.152Z,162.60
2023-02-16T02:14:22.608Z,138.15
2023-02-16T02:17:01.560Z,167.20
2023-02-16T02:20:02.792Z,153.38
2023-02-16T02:23:31.910Z,165.07
2023-02-16T02:26:09.890Z,170.85
2023-02-16T02:28:57.180Z,161.07
2023-02-16T02:31:42.535Z,178.60
2023-02-16T02:34:42.508Z,137.23
2023-02-16T02:37:34.635Z,164.80
2023-02-16T02:40:06.434Z,136.27
2023-02-16T02:42:56.901Z,153.27
2023-02-16T02:45:34.553Z,154.63
2023-02-16T02:48:07.222Z,133.82
2023-02-16T02:51:04.150Z,158.80
2023-02-16T02:53:48.390Z,138.90
2023-02-16T02:56:59.449Z,146.85
2023-02-16T02:59:53.542Z,157.32
2023-02-16T03:02:26.583Z,157.30
2023-02-16T03:05:00.252Z,157.23
2023-02-16T03:07:48.933Z,153.85
2023-02-16T03:10:46.354Z,150.73
2023-02-16T03:13:24.286Z,155.40
2023-02-16T03:15:58.178Z,143.40
2023-02-16T03:18:52.278Z,135.35
2023-02-16T03:21:45.052Z,152.45
2023-02-16T03:24:45.767Z,145.88
2023-02-16T03:27:49.922Z,154.82
2023-02-16T03:30:23.760Z,137.07
2023-02-16T03:32:55.960Z,154.93
2023-02-16T03:35:29.237Z,165.50
2023-02-16T03:38:01.442Z,143.45
2023-02-16T03:40:35.836Z,159.27
2023-02-16T03:43:09.380Z,164.68
2023-02-16T03:45:43.824Z,157.75
2023-02-16T03:48:15.962Z,160.73
2023-02-16T03:50:47.970Z,162.30
2023-02-16T03:53:20.070Z,140.00
2023-02-16T03:55:52.020Z,159.85
2023-02-16T03:58:25.655Z,151.35
2023-02-16T04:00:59.295Z,147.90
2023-02-16T04:03:31.362Z,154.45
2023-02-16T04:06:03.427Z,132.10
2023-02-16T04:08:35.565Z,151.88
2023-02-16T04:11:27.646Z,134.38
2023-02-16T04:13:59.619Z,152.40
2023-02-16T04:16:31.720Z,155.88
2023-02-16T04:19:03.859Z,142.35
2023-02-16T04:21:35.828Z,137.07
2023-02-16T04:24:07.954Z,156.95
2023-02-16T04:26:40.072Z,151.30
2023-02-16T04:29:12.084Z,142.55
2023-02-16T04:31:44.216Z,152.40
2023-02-16T04:34:16.532Z,141.77
2023-02-16T04:36:48.525Z,152.05
2023-02-16T04:39:21.178Z,124.03
2023-02-16T04:41:53.255Z,129.15
2023-02-16T04:44:25.402Z,138.27
2023-02-16T04:46:57.848Z,150.48
2023-02-16T04:49:29.859Z,146.10
2023-02-16T04:52:04.239Z,150.43
2023-02-16T04:54:36.229Z,146.80
2023-02-16T04:57:08.538Z,155.48
2023-02-16T04:59:40.520Z,138.20
2023-02-16T05:02:12.611Z,133.32
2023-02-16T05:04:44.734Z,147.27
2023-02-16T05:07:16.770Z,143.18
2023-02-16T05:09:48.765Z,148.95
2023-02-16T05:12:39.874Z,162.35
2023-02-16T05:15:11.868Z,152.90
2023-02-16T05:17:44.072Z,155.20
2023-02-16T05:20:16.125Z,153.73
2023-02-16T05:22:48.146Z,155.18
2023-02-16T05:25:20.318Z,155.48
2023-02-16T05:27:52.335Z,148.15
2023-02-16T05:30:24.409Z,146.10
2023-02-16T05:32:56.580Z,161.68
2023-02-16T05:35:28.622Z,164.13
2023-02-16T05:38:00.648Z,166.70
2023-02-16T05:40:32.796Z,151.27
2023-02-16T05:43:04.802Z,165.43
2023-02-16T05:45:39.034Z,157.30
2023-02-16T05:48:11.047Z,155.05
2023-02-16T05:50:43.183Z,172.73
2023-02-16T05:53:15.240Z,168.90
2023-02-16T05:55:47.217Z,191.75
2023-02-16T05:58:19.218Z,171.32
2023-02-16T06:00:51.270Z,190.20
2023-02-16T06:03:23.267Z,201.18
2023-02-16T06:05:57.598Z,194.88
2023-02-16T06:08:30.775Z,168.23
2023-02-16T06:11:03.178Z,184.10
2023-02-16T06:13:36.616Z,203.23
2023-02-16T06:16:08.702Z,237.60
2023-02-16T06:18:41.253Z,204.20
2023-02-16T06:21:13.990Z,233.82
2023-02-16T06:23:46.036Z,207.73
2023-02-16T06:26:18.759Z,209.82
2023-02-16T06:28:50.932Z,168.60
2023-02-16T06:31:24.295Z,208.93
2023-02-16T06:33:57.333Z,193.82
2023-02-16T06:36:29.398Z,194.68
2023-02-16T06:39:01.438Z,162.52
2023-02-16T06:41:38.216Z,156.10
2023-02-16T06:44:15.023Z,163.65
2023-02-16T06:46:48.584Z,154.10
2023-02-16T06:49:21.639Z,148.52
2023-02-16T06:51:53.838Z,148.27
2023-02-16T06:54:25.860Z,152.05
2023-02-16T06:56:57.849Z,154.38
2023-02-16T06:59:29.866Z,154.35
2023-02-16T07:02:01.824Z,168.48
2023-02-16T07:04:33.732Z,155.20
2023-02-16T07:07:05.876Z,160.10
2023-02-16T07:09:37.898Z,166.27
2023-02-16T07:12:09.887Z,149.40
2023-02-16T07:14:43.870Z,147.50
2023-02-16T07:17:16.193Z,159.70
2023-02-16T07:19:48.128Z,162.43
2023-02-16T07:22:20.241Z,153.75
2023-02-16T07:24:52.255Z,191.35
2023-02-16T07:27:26.852Z,188.07
2023-02-16T07:29:58.865Z,188.95
2023-02-16T07:32:31.015Z,153.50
2023-02-16T07:35:02.949Z,163.55
2023-02-16T07:37:34.884Z,152.38
2023-02-16T07:40:07.598Z,157.27
2023-02-16T07:42:39.704Z,154.57
2023-02-16T07:45:11.716Z,143.45
2023-02-16T07:47:43.764Z,143.35
2023-02-16T07:50:16.941Z,146.27
2023-02-16T07:52:48.904Z,177.25
2023-02-16T07:55:20.868Z,160.18
2023-02-16T07:57:57.212Z,147.77
2023-02-16T08:00:29.165Z,164.15
2023-02-16T08:03:01.586Z,154.73
2023-02-16T08:05:34.612Z,149.43
2023-02-16T08:08:06.912Z,185.18
2023-02-16T08:10:38.867Z,156.45
2023-02-16T08:13:10.862Z,154.18
2023-02-16T08:15:44.621Z,149.30
2023-02-16T08:18:16.620Z,153.63
2023-02-16T08:21:03.419Z,157.88
2023-02-16T08:23:36.058Z,141.77
2023-02-16T08:26:10.367Z,135.75
2023-02-16T08:28:46.287Z,131.10
2023-02-16T08:31:20.823Z,122.43
2023-02-16T08:33:54.401Z,122.25
2023-02-16T08:36:38.644Z,120.53
2023-02-16T08:39:17.490Z,110.07
2023-02-16T08:41:53.796Z,122.80
2023-02-16T08:44:27.066Z,121.65
2023-02-16T08:47:01.306Z,121.45
2023-02-16T08:49:33.285Z,143.95
2023-02-16T08:52:05.804Z,128.32
2023-02-16T08:54:37.742Z,113.28
2023-02-16T08:57:09.823Z,100.35
2023-02-16T08:59:41.839Z,113.15
2023-02-16T09:02:13.817Z,122.40
2023-02-16T09:04:47.846Z,126.72
2023-02-16T09:07:21.732Z,111.30
2023-02-16T09:09:53.760Z,108.93
2023-02-16T09:12:25.925Z,119.53
2023-02-16T09:14:57.883Z,99.40
2023-02-16T09:17:29.933Z,99.35
2023-02-16T09:20:02.481Z,93.25
2023-02-16T09:22:34.682Z,96.72
2023-02-16T09:25:08.603Z,93.63
2023-02-16T09:27:40.565Z,97.90
2023-02-16T09:30:12.903Z,94.82
2023-02-16T09:32:45.480Z,93.32
2023-02-16T09:35:17.593Z,90.60
2023-02-16T09:37:50.278Z,90.90
2023-02-16T09:40:22.257Z,87.82
2023-02-16T09:43:03.372Z,91.38
2023-02-16T09:45:46.335Z,87.22
2023-02-16T09:48:34.644Z,91.78
2023-02-16T09:51:09.468Z,89.47
2023-02-16T09:53:45.480Z,88.00
2023-02-16T09:56:35.462Z,83.25
2023-02-16T09:59:26.061Z,93.20
2023-02-16T10:02:26.777Z,84.00
2023-02-16T10:05:08.758Z,82.22
2023-02-16T10:08:07.308Z,84.78
2023-02-16T10:10:48.285Z,88.95
2023-02-16T10:13:38.155Z,91.13
2023-02-16T10:16:18.924Z,82.68
2023-02-16T10:18:55.372Z,90.45
2023-02-16T10:21:31.694Z,81.60
2023-02-16T10:24:09.083Z,86.95
2023-02-16T10:27:08.620Z,77.70
2023-02-16T10:29:40.837Z,81.97
2023-02-16T10:32:43.727Z,77.97
2023-02-16T10:35:20.939Z,80.18
2023-02-16T10:38:07.893Z,77.18
2023-02-16T10:40:51.256Z,75.68
2023-02-16T10:43:39.190Z,74.32
2023-02-16T10:46:15.722Z,74.10
2023-02-16T10:48:48.844Z,72.18
2023-02-16T10:51:25.559Z,73.07
2023-02-16T10:54:02.444Z,76.68
2023-02-16T10:57:01.534Z,74.93
2023-02-16T10:59:42.231Z,78.07
2023-02-16T11:02:35.725Z,76.32
2023-02-16T11:05:26.533Z,73.07
2023-02-16T11:10:49.104Z,72.15
2023-02-16T11:13:34.948Z,71.43
2023-02-16T11:16:12.431Z,68.05
2023-02-16T11:18:50.035Z,69.78
2023-02-16T11:21:22.169Z,70.93
2023-02-16T11:24:02.504Z,65.75
2023-02-16T11:26:34.501Z,69.18
2023-02-16T11:29:20.673Z,62.58
2023-02-16T11:31:52.739Z,63.85
2023-02-16T11:34:37.192Z,66.05
2023-02-16T11:37:27.079Z,63.17
2023-02-16T11:40:03.534Z,69.80
2023-02-16T11:42:44.238Z,66.03
2023-02-16T11:48:25.322Z,68.65
2023-02-16T11:51:07.213Z,63.28
2023-02-16T11:53:43.788Z,61.35
2023-02-16T11:56:27.540Z,62.17
2023-02-16T11:59:16.325Z,57.03
2023-02-16T12:01:54.089Z,63.83
2023-02-16T12:04:47.976Z,61.90
2023-02-16T12:07:27.344Z,69.20
2023-02-16T12:10:29.223Z,59.67
2023-02-16T12:13:04.413Z,58.97
2023-02-16T12:15:47.290Z,59.67
2023-02-16T12:18:51.469Z,58.33
2023-02-16T12:21:44.146Z,55.83
2023-02-16T12:24:37.375Z,54.47
2023-02-16T12:27:22.485Z,55.10
2023-02-16T12:30:20.368Z,52.05
2023-02-16T12:33:20.972Z,56.30
2023-02-16T12:36:11.805Z,53.25
2023-02-16T12:41:46.172Z,51.80
2023-02-16T12:44:42.347Z,52.05
2023-02-16T12:47:27.114Z,53.10
2023-02-16T12:50:08.255Z,56.70
2023-02-16T12:52:58.194Z,53.75
2023-02-16T12:55:38.624Z,56.93
2023-02-16T12:58:29.322Z,57.70
2023-02-16T13:01:09.330Z,54.75
2023-02-16T13:04:07.798Z,57.60
2023-02-16T13:07:00.343Z,55.80
2023-02-16T13:09:58.898Z,57.60
2023-02-16T13:12:42.593Z,50.40
2023-02-16T13:15:23.172Z,54.83
2023-02-16T13:18:03.464Z,52.60
2023-02-16T13:20:40.049Z,48.17
2023-02-16T13:23:31.376Z,52.63
2023-02-16T13:26:26.819Z,50.78
2023-02-16T13:29:11.321Z,51.58
2023-02-16T13:35:36.007Z,49.30
2023-02-16T13:38:23.415Z,48.20
2023-02-16T13:41:12.067Z,49.75
2023-02-16T13:43:48.348Z,50.05
2023-02-16T13:46:28.931Z,50.20
2023-02-16T13:49:02.627Z,50.15
2023-02-16T13:51:44.558Z,56.17
2023-02-16T13:54:32.034Z,51.00
2023-02-16T13:57:04.844Z,51.78
2023-02-16T13:59:37.039Z,54.00
2023-02-16T14:02:13.489Z,55.75
2023-02-16T14:04:51.575Z,54.80
2023-02-16T14:07:32.984Z,54.03
2023-02-16T14:10:06.117Z,56.05
2023-02-16T14:12:39.892Z,55.28
2023-02-16T14:15:20.828Z,56.10
2023-02-16T14:17:52.802Z,55.22
2023-02-16T14:20:29.433Z,57.17
2023-02-16T14:23:01.696Z,52.08
2023-02-16T14:25:37.900Z,56.33
2023-02-16T14:28:22.027Z,67.28
2023-02-16T14:30:57.269Z,64.82
2023-02-16T14:33:50.513Z,66.57
2023-02-16T14:36:27.481Z,66.10
2023-02-16T14:39:02.466Z,62.90
2023-02-16T14:41:37.081Z,63.67
2023-02-16T14:44:40.661Z,74.28
2023-02-16T14:47:36.246Z,72.40
2023-02-16T14:50:21.880Z,90.70
2023-02-16T14:53:16.799Z,103.78
2023-02-16T14:56:42.750Z,85.90
2023-02-16T14:59:28.517Z,96.05
2023-02-16T15:02:00.851Z,92.68
2023-02-16T15:04:35.384Z,101.13
2023-02-16T15:07:08.015Z,107.63
2023-02-16T15:09:42.459Z,83.57
2023-02-16T15:12:24.545Z,86.40
2023-02-16T15:15:03.822Z,80.55
2023-02-16T15:17:40.601Z,96.28
2023-02-16T15:20:25.380Z,136.75
2023-02-16T15:23:00.133Z,132.57
2023-02-16T15:25:36.235Z,181.10
2023-02-16T15:28:11.306Z,259.10
2023-02-16T15:30:59.116Z,265.98
2023-02-16T15:33:43.609Z,229.43
2023-02-16T15:36:31.931Z,229.70
2023-02-16T15:39:09.428Z,127.05
2023-02-16T15:41:46.000Z,147.25
2023-02-16T15:44:36.161Z,175.35
2023-02-16T15:47:21.004Z,196.98
2023-02-16T15:49:54.348Z,156.60
2023-02-16T15:52:38.086Z,207.68
2023-02-16T15:55:13.318Z,215.25
2023-02-16T15:57:46.261Z,367.88
2023-02-16T16:00:21.901Z,358.75
2023-02-16T16:02:58.658Z,367.85
2023-02-16T16:05:35.951Z,476.00
2023-02-16T16:08:13.219Z,427.92
2023-02-16T16:10:46.768Z,424.30
2023-02-16T16:13:23.467Z,372.83
2023-02-16T16:16:02.030Z,327.05
2023-02-16T16:18:48.244Z,331.27
2023-02-16T16:21:34.471Z,295.90
2023-02-16T16:24:11.079Z,274.38
2023-02-16T16:26:59.125Z,204.82
2023-02-16T16:29:42.822Z,196.93
2023-02-16T16:32:29.093Z,181.43
2023-02-16T16:35:01.113Z,144.52
2023-02-16T16:37:37.067Z,126.15
2023-02-16T16:40:22.890Z,167.20
2023-02-16T16:43:04.016Z,283.77
2023-02-16T16:45:43.461Z,338.80
2023-02-16T16:48:26.049Z,205.75
2023-02-16T16:51:24.577Z,153.93
2023-02-16T16:54:39.968Z,112.78
2023-02-16T16:57:19.027Z,97.40
2023-02-16T16:59:51.539Z,95.18
2023-02-16T17:02:23.465Z,88.47
2023-02-16T17:04:55.394Z,82.35
2023-02-16T17:07:27.308Z,89.05
2023-02-16T17:10:00.059Z,212.25
2023-02-16T17:12:32.711Z,209.13
2023-02-16T17:15:08.153Z,152.85
2023-02-16T17:17:40.291Z,110.38
2023-02-16T17:20:15.239Z,96.45
2023-02-16T17:22:47.370Z,94.20
2023-02-16T17:25:19.647Z,84.30
2023-02-16T17:27:51.657Z,102.65
2023-02-16T17:30:23.833Z,95.55
2023-02-16T17:32:55.993Z,105.03
2023-02-16T17:35:28.761Z,112.38
2023-02-16T17:38:19.980Z,117.82
2023-02-16T17:40:55.495Z,170.35
2023-02-16T17:43:28.151Z,219.02
2023-02-16T17:46:05.121Z,190.32
2023-02-16T17:48:37.520Z,195.05
2023-02-16T17:51:15.687Z,158.15
2023-02-16T17:53:47.732Z,128.85
2023-02-16T17:56:22.465Z,121.88
2023-02-16T17:58:54.478Z,114.35
2023-02-16T18:01:26.546Z,104.45
2023-02-16T18:03:59.900Z,123.53
2023-02-16T18:06:32.010Z,114.57
2023-02-16T18:09:04.511Z,124.03
2023-02-16T18:11:36.492Z,165.10
2023-02-16T18:14:08.520Z,180.20
2023-02-16T18:16:40.779Z,183.80
2023-02-16T18:19:15.508Z,147.73
2023-02-16T18:21:47.470Z,134.95
2023-02-16T18:24:22.334Z,124.68
2023-02-16T18:26:55.824Z,123.50
2023-02-16T18:29:27.752Z,125.05
2023-02-16T18:31:59.731Z,121.63
2023-02-16T18:34:33.207Z,117.90
2023-02-16T18:37:05.232Z,110.72
2023-02-16T18:39:37.181Z,119.88
2023-02-16T18:42:10.300Z,111.15
2023-02-16T18:44:42.345Z,124.38
2023-02-16T18:47:14.910Z,120.20
2023-02-16T18:49:49.417Z,124.95
2023-02-16T18:52:21.512Z,128.80
2023-02-16T18:54:56.595Z,116.03
2023-02-16T18:57:28.588Z,120.63
2023-02-16T19:00:00.556Z,134.65
2023-02-16T19:02:32.640Z,137.77
2023-02-16T19:05:06.225Z,130.60
2023-02-16T19:07:38.208Z,131.05
2023-02-16T19:10:10.896Z,137.80
2023-02-16T19:12:42.776Z,143.57
2023-02-16T19:15:14.724Z,130.27
2023-02-16T19:17:46.747Z,131.80
2023-02-16T19:20:19.718Z,138.20
2023-02-16T19:22:52.408Z,144.93
2023-02-16T19:25:24.421Z,146.05
2023-02-16T19:27:56.436Z,143.45
2023-02-16T19:30:28.541Z,135.30
2023-02-16T19:33:00.870Z,154.98
2023-02-16T19:35:32.905Z,142.93
2023-02-16T19:38:04.881Z,128.57
2023-02-16T19:40:38.808Z,136.95
2023-02-16T19:43:10.770Z,129.00
2023-02-16T19:45:43.367Z,133.00
2023-02-16T19:48:15.307Z,125.68
2023-02-16T19:50:47.294Z,121.75
2023-02-16T19:53:19.281Z,127.57
2023-02-16T19:55:52.769Z,128.80
2023-02-16T19:58:26.787Z,126.18
2023-02-16T20:00:58.785Z,123.65
2023-02-16T20:03:30.973Z,123.60
2023-02-16T20:06:40.725Z,132.98
2023-02-16T20:09:13.671Z,132.63
2023-02-16T20:11:46.317Z,129.07
2023-02-16T20:14:18.486Z,121.88
2023-02-16T20:16:52.089Z,124.93
2023-02-16T20:19:24.251Z,139.10
2023-02-16T20:21:56.402Z,132.20
2023-02-16T20:24:28.444Z,127.85
2023-02-16T20:27:04.686Z,125.28
2023-02-16T20:29:36.687Z,129.80
2023-02-16T20:32:08.731Z,142.27
2023-02-16T20:34:40.884Z,144.68
2023-02-16T20:37:12.917Z,155.07
2023-02-16T20:39:45.596Z,174.35
2023-02-16T20:42:17.530Z,165.80
2023-02-16T20:44:49.453Z,165.00
2023-02-16T20:47:21.413Z,145.80
2023-02-16T20:49:53.614Z,153.52
2023-02-16T20:52:25.541Z,141.07
2023-02-16T20:54:57.515Z,143.77
2023-02-16T20:57:29.495Z,132.43
2023-02-16T21:00:02.551Z,126.75
2023-02-16T21:02:34.668Z,133.77
2023-02-16T21:05:08.873Z,139.68
2023-02-16T21:07:40.952Z,118.68
2023-02-16T21:10:15.438Z,130.10
2023-02-16T21:12:47.406Z,141.50
2023-02-16T21:15:19.459Z,144.90
2023-02-16T21:17:51.424Z,144.77
2023-02-16T21:20:23.495Z,153.15
2023-02-16T21:22:55.488Z,144.15
2023-02-16T21:25:27.461Z,157.30
2023-02-16T21:27:59.409Z,150.20
2023-02-16T21:30:31.547Z,146.73
2023-02-16T21:33:03.517Z,141.48
2023-02-16T21:35:35.819Z,142.70
2023-02-16T21:38:07.695Z,137.05
2023-02-16T21:40:58.144Z,140.20
2023-02-16T21:43:30.229Z,132.60
2023-02-16T21:46:02.292Z,126.95
2023-02-16T21:48:50.439Z,146.45
2023-02-16T21:51:25.876Z,129.73
2023-02-16T21:53:58.309Z,139.95
2023-02-16T21:56:44.125Z,131.40
2023-02-16T21:59:18.205Z,135.95
2023-02-16T22:01:51.703Z,152.35
2023-02-16T22:04:23.757Z,141.95
2023-02-16T22:06:56.352Z,126.43
2023-02-16T22:09:28.213Z,141.32
2023-02-16T22:12:00.196Z,139.60
2023-02-16T22:14:33.643Z,126.65
2023-02-16T22:17:07.957Z,130.75
2023-02-16T22:19:39.921Z,142.68
2023-02-16T22:22:11.888Z,143.73
2023-02-16T22:24:44.043Z,140.30
2023-02-16T22:27:16.134Z,145.93
2023-02-16T22:29:48.113Z,149.45
2023-02-16T22:32:20.242Z,139.55
2023-02-16T22:34:54.397Z,137.68
2023-02-16T22:37:26.417Z,138.68
2023-02-16T22:39:58.333Z,145.85
2023-02-16T22:42:30.375Z,134.88
2023-02-16T22:45:03.409Z,139.10
2023-02-16T22:47:35.401Z,127.30
2023-02-16T22:50:07.849Z,133.38
2023-02-16T22:52:39.834Z,137.90
2023-02-16T22:55:11.849Z,163.30
2023-02-16T22:57:43.794Z,158.98
2023-02-16T23:00:17.480Z,167.30
2023-02-16T23:02:49.447Z,162.52
2023-02-16T23:05:21.394Z,144.90
2023-02-16T23:07:53.366Z,148.20
2023-02-16T23:10:25.298Z,152.63
2023-02-16T23:12:57.259Z,150.50
2023-02-16T23:15:29.211Z,148.30
2023-02-16T23:18:01.224Z,145.80
2023-02-16T23:20:33.484Z,152.55
2023-02-16T23:23:05.715Z,151.25
2023-02-16T23:25:37.680Z,146.88
2023-02-16T23:28:11.345Z,144.80
2023-02-16T23:30:45.085Z,141.45
2023-02-16T23:33:17.135Z,135.38
2023-02-16T23:35:49.103Z,140.57
2023-02-16T23:38:21.463Z,120.05
2023-02-16T23:41:04.225Z,127.72
2023-02-16T23:43:36.194Z,131.65
2023-02-16T23:46:09.153Z,133.05
2023-02-16T23:48:41.362Z,115.45
2023-02-16T23:51:13.460Z,120.25
2023-02-16T23:53:45.441Z,136.15
2023-02-16T23:56:20.617Z,137.18
2023-02-16T23:58:56.263Z,130.93
